createdAt,value
2022-08-26T00:01:53.742Z,101461.50
2022-08-26T00:04:22.124Z,101466.63
2022-08-26T00:06:49.102Z,101461.19
2022-08-26T00:09:16.862Z,101456.88
2022-08-26T00:11:45.360Z,101454.47
2022-08-26T00:14:14.166Z,101453.50
2022-08-26T00:16:48.116Z,101450.03
2022-08-26T00:19:18.192Z,101449.19
2022-08-26T00:21:48.579Z,101448.22
2022-08-26T00:24:17.852Z,101448.19
2022-08-26T00:26:44.802Z,101442.72
2022-08-26T00:29:12.207Z,101446.09
2022-08-26T00:31:39.892Z,101438.13
2022-08-26T00:34:09.366Z,101439.84
2022-08-26T00:36:37.204Z,101432.81
2022-08-26T00:39:06.994Z,101434.41
2022-08-26T00:41:36.788Z,101431.59
2022-08-26T00:44:04.264Z,101427.09
2022-08-26T00:46:36.069Z,101426.97
2022-08-26T00:49:35.977Z,101424.19
2022-08-26T00:52:09.784Z,101410.81
2022-08-26T00:54:46.761Z,101417.75
2022-08-26T00:57:18.024Z,101417.78
2022-08-26T00:59:57.041Z,101408.03
2022-08-26T01:02:24.506Z,101409.59
2022-08-26T01:04:56.018Z,101407.72
2022-08-26T01:07:26.200Z,101398.75
2022-08-26T01:09:55.168Z,101410.91
2022-08-26T01:12:24.637Z,101406.34
2022-08-26T01:14:52.135Z,101405.34
2022-08-26T01:17:19.099Z,101403.47
2022-08-26T01:19:51.443Z,101398.06
2022-08-26T01:23:03.123Z,101403.34
2022-08-26T01:25:33.966Z,101412.13
2022-08-26T01:28:06.619Z,101410.50
2022-08-26T01:30:35.670Z,101412.56
2022-08-26T01:33:07.092Z,101407.75
2022-08-26T01:35:34.208Z,101412.59
2022-08-26T01:38:02.266Z,101413.56
2022-08-26T01:40:36.193Z,101408.25
2022-08-26T01:43:06.541Z,101409.25
2022-08-26T01:45:35.936Z,101408.69
2022-08-26T01:48:09.101Z,101404.38
2022-08-26T01:50:38.616Z,101408.66
2022-08-26T01:53:10.663Z,101400.53
2022-08-26T01:55:43.576Z,101395.03
2022-08-26T01:58:23.813Z,101402.84
2022-08-26T02:00:51.782Z,101413.22
2022-08-26T02:03:22.235Z,101409.44
2022-08-26T02:05:57.425Z,101409.38
2022-08-26T02:08:49.223Z,101398.81
2022-08-26T02:11:18.408Z,101402.28
2022-08-26T02:13:50.817Z,101403.09
2022-08-26T02:16:22.788Z,101393.28
2022-08-26T02:18:52.782Z,101398.41
2022-08-26T02:21:20.547Z,101399.22
2022-08-26T02:23:47.616Z,101396.47
2022-08-26T02:26:21.197Z,101396.47
2022-08-26T02:29:03.896Z,101389.69
2022-08-26T02:31:31.279Z,101390.03
2022-08-26T02:34:20.308Z,101390.31
2022-08-26T02:36:47.203Z,101380.63
2022-08-26T02:39:18.009Z,101384.00
2022-08-26T02:41:49.757Z,101379.97
2022-08-26T02:44:16.709Z,101389.03
2022-08-26T02:46:46.808Z,101386.56
2022-08-26T02:49:16.296Z,101386.56
2022-08-26T02:51:44.118Z,101383.84
2022-08-26T02:54:11.106Z,101373.16
2022-08-26T02:56:38.058Z,101374.84
2022-08-26T02:59:05.759Z,101370.56
2022-08-26T03:01:36.046Z,101371.59
2022-08-26T03:04:06.340Z,101373.66
2022-08-26T03:06:33.280Z,101370.44
2022-08-26T03:09:00.171Z,101376.13
2022-08-26T03:11:32.305Z,101379.00
2022-08-26T03:14:01.737Z,101375.63
2022-08-26T03:16:35.726Z,101371.34
2022-08-26T03:19:06.002Z,101366.97
2022-08-26T03:21:33.357Z,101361.00
2022-08-26T03:24:00.494Z,101369.81
2022-08-26T03:26:29.036Z,101364.47
2022-08-26T03:29:15.163Z,101363.53
2022-08-26T03:31:43.708Z,101373.88
2022-08-26T03:34:14.142Z,101367.59
2022-08-26T03:36:42.123Z,101364.06
2022-08-26T03:39:10.994Z,101367.47
2022-08-26T03:41:39.040Z,101368.25
2022-08-26T03:44:08.876Z,101355.88
2022-08-26T03:46:36.386Z,101357.41
2022-08-26T03:49:05.976Z,101367.91
2022-08-26T03:51:34.674Z,101366.19
2022-08-26T03:54:08.369Z,101364.44
2022-08-26T03:56:36.542Z,101375.84
2022-08-26T03:59:04.595Z,101368.75
2022-08-26T04:01:31.591Z,101361.84
2022-08-26T04:04:00.507Z,101363.72
2022-08-26T04:06:35.564Z,101361.03
2022-08-26T04:09:07.829Z,101367.16
2022-08-26T04:11:37.841Z,101352.06
2022-08-26T04:14:10.718Z,101360.72
2022-08-26T04:16:38.537Z,101358.94
2022-08-26T04:19:06.566Z,101352.63
2022-08-26T04:21:35.327Z,101357.84
2022-08-26T04:24:03.700Z,101352.53
2022-08-26T04:26:39.455Z,101355.34
2022-08-26T04:29:20.604Z,101359.06
2022-08-26T04:31:50.560Z,101359.34
2022-08-26T04:34:24.620Z,101361.97
2022-08-26T04:36:54.659Z,101356.47
2022-08-26T04:39:21.593Z,101355.72
2022-08-26T04:41:50.733Z,101354.59
2022-08-26T04:44:18.645Z,101352.84
2022-08-26T04:46:45.677Z,101365.19
2022-08-26T04:49:13.568Z,101352.06
2022-08-26T04:51:40.653Z,101357.94
2022-08-26T04:54:08.038Z,101357.00
2022-08-26T04:56:39.167Z,101357.94
2022-08-26T04:59:16.825Z,101354.34
2022-08-26T05:01:46.614Z,101350.03
2022-08-26T05:04:13.784Z,101356.75
2022-08-26T05:06:43.603Z,101357.63
2022-08-26T05:09:10.556Z,101353.09
2022-08-26T05:11:38.387Z,101341.78
2022-08-26T05:14:06.046Z,101352.09
2022-08-26T05:16:33.300Z,101348.50
2022-08-26T05:19:00.263Z,101350.09
2022-08-26T05:21:29.069Z,101352.78
2022-08-26T05:23:56.622Z,101359.13
2022-08-26T05:26:30.615Z,101353.94
2022-08-26T05:28:58.240Z,101350.56
2022-08-26T05:31:31.747Z,101347.53
2022-08-26T05:34:00.414Z,101350.88
2022-08-26T05:36:33.489Z,101352.66
2022-08-26T05:39:03.605Z,101351.78
2022-08-26T05:41:36.650Z,101354.25
2022-08-26T05:44:10.354Z,101354.25
2022-08-26T05:46:38.316Z,101353.50
2022-08-26T05:49:12.663Z,101350.69
2022-08-26T05:51:45.117Z,101350.53
2022-08-26T05:54:13.366Z,101355.63
2022-08-26T05:56:40.275Z,101350.09
2022-08-26T05:59:14.709Z,101353.38
2022-08-26T06:01:43.529Z,101346.09
2022-08-26T06:04:11.658Z,101352.97
2022-08-26T06:06:41.375Z,101352.78
2022-08-26T06:09:10.884Z,101355.09
2022-08-26T06:11:38.829Z,101353.16
2022-08-26T06:14:07.912Z,101362.56
2022-08-26T06:16:40.968Z,101357.00
2022-08-26T06:19:11.692Z,101366.53
2022-08-26T06:21:42.043Z,101363.56
2022-08-26T06:24:31.649Z,101367.03
2022-08-26T06:27:04.873Z,101360.41
2022-08-26T06:29:34.550Z,101364.28
2022-08-26T06:32:04.524Z,101354.81
2022-08-26T06:34:31.752Z,101350.59
2022-08-26T06:37:02.730Z,101361.41
2022-08-26T06:39:31.853Z,101358.00
2022-08-26T06:42:03.209Z,101365.03
2022-08-26T06:44:34.394Z,101368.44
2022-08-26T06:47:01.483Z,101366.72
2022-08-26T06:49:28.484Z,101364.06
2022-08-26T06:51:58.957Z,101367.53
2022-08-26T06:54:32.369Z,101361.97
2022-08-26T06:56:59.616Z,101355.56
2022-08-26T06:59:27.136Z,101354.63
2022-08-26T07:01:54.902Z,101346.59
2022-08-26T07:04:23.212Z,101351.53
2022-08-26T07:06:52.944Z,101361.91
2022-08-26T07:09:23.709Z,101357.34
2022-08-26T07:11:51.863Z,101353.75
2022-08-26T07:14:21.455Z,101356.34
2022-08-26T07:16:49.981Z,101358.06
2022-08-26T07:19:30.146Z,101355.50
2022-08-26T07:22:05.517Z,101360.69
2022-08-26T07:24:35.354Z,101357.03
2022-08-26T07:27:06.203Z,101358.69
2022-08-26T07:29:34.933Z,101357.84
2022-08-26T07:32:02.468Z,101359.56
2022-08-26T07:34:29.877Z,101361.09
2022-08-26T07:36:56.985Z,101368.09
2022-08-26T07:39:25.197Z,101364.56
2022-08-26T07:41:52.879Z,101361.72
2022-08-26T07:44:19.867Z,101358.69
2022-08-26T07:46:52.108Z,101346.06
2022-08-26T07:49:22.639Z,101361.81
2022-08-26T07:51:51.168Z,101360.03
2022-08-26T07:54:18.649Z,101357.97
2022-08-26T07:56:46.888Z,101360.47
2022-08-26T07:59:14.942Z,101359.97
2022-08-26T08:01:45.107Z,101365.94
2022-08-26T08:04:18.881Z,101369.28
2022-08-26T08:06:52.538Z,101371.69
2022-08-26T08:09:19.497Z,101366.09
2022-08-26T08:11:49.862Z,101362.22
2022-08-26T08:14:18.558Z,101356.56
2022-08-26T08:16:54.425Z,101358.81
2022-08-26T08:19:23.915Z,101357.56
2022-08-26T08:21:54.565Z,101358.06
2022-08-26T08:24:21.993Z,101349.06
2022-08-26T08:26:48.913Z,101345.50
2022-08-26T08:29:15.821Z,101349.97
2022-08-26T08:31:56.524Z,101347.22
2022-08-26T08:34:28.298Z,101335.56
2022-08-26T08:36:57.111Z,101336.19
2022-08-26T08:39:25.495Z,101340.31
2022-08-26T08:42:23.427Z,101322.16
2022-08-26T08:44:53.338Z,101324.41
2022-08-26T08:47:54.618Z,101318.84
2022-08-26T08:50:33.959Z,101309.50
2022-08-26T08:53:34.511Z,101318.94
2022-08-26T08:56:15.781Z,101318.56
2022-08-26T08:58:59.516Z,101322.88
2022-08-26T09:01:45.541Z,101328.81
2022-08-26T09:04:29.978Z,101331.16
2022-08-26T09:07:00.138Z,101337.06
2022-08-26T09:09:39.803Z,101332.69
2022-08-26T09:12:21.425Z,101333.19
2022-08-26T09:15:30.441Z,101326.44
2022-08-26T09:18:30.188Z,101326.78
2022-08-26T09:21:05.052Z,101334.19
2022-08-26T09:23:36.444Z,101325.47
2022-08-26T09:26:20.229Z,101329.88
2022-08-26T09:29:27.080Z,101329.41
2022-08-26T09:32:19.537Z,101326.06
2022-08-26T09:35:02.209Z,101321.75
2022-08-26T09:40:26.873Z,101317.69
2022-08-26T09:43:22.073Z,101307.41
2022-08-26T09:45:59.065Z,101309.63
2022-08-26T09:48:35.565Z,101298.34
2022-08-26T09:51:23.999Z,101294.88
2022-08-26T09:53:58.376Z,101294.25
2022-08-26T09:56:39.385Z,101294.63
2022-08-26T09:59:12.021Z,101289.09
2022-08-26T10:01:44.053Z,101288.22
2022-08-26T10:04:20.665Z,101283.75
2022-08-26T10:07:07.346Z,101282.53
2022-08-26T10:09:40.870Z,101277.72
2022-08-26T10:12:15.343Z,101282.66
2022-08-26T10:15:09.068Z,101280.31
2022-08-26T10:17:49.783Z,101284.88
2022-08-26T10:20:27.505Z,101276.28
2022-08-26T10:23:18.031Z,101272.22
2022-08-26T10:25:57.003Z,101270.56
2022-08-26T10:28:52.716Z,101267.84
2022-08-26T10:31:27.928Z,101266.97
2022-08-26T10:33:58.794Z,101261.75
2022-08-26T10:37:15.065Z,101257.53
2022-08-26T10:40:03.768Z,101246.00
2022-08-26T10:42:39.152Z,101248.78
2022-08-26T10:45:15.020Z,101234.75
2022-08-26T10:48:06.488Z,101237.34
2022-08-26T10:50:38.826Z,101228.81
2022-08-26T10:53:17.211Z,101226.13
2022-08-26T10:56:41.198Z,101211.88
2022-08-26T10:59:30.868Z,101207.47
2022-08-26T11:02:15.371Z,101197.00
2022-08-26T11:04:57.770Z,101188.06
2022-08-26T11:07:39.686Z,101183.28
2022-08-26T11:10:20.516Z,101177.50
2022-08-26T11:13:04.611Z,101171.47
2022-08-26T11:15:31.704Z,101175.38
2022-08-26T11:18:05.956Z,101170.56
2022-08-26T11:20:47.159Z,101156.94
2022-08-26T11:23:14.412Z,101156.50
2022-08-26T11:25:57.036Z,101150.66
2022-08-26T11:28:45.076Z,101141.88
2022-08-26T11:31:37.632Z,101148.34
2022-08-26T11:34:10.923Z,101146.97
2022-08-26T11:36:45.599Z,101138.06
2022-08-26T11:39:55.039Z,101130.19
2022-08-26T11:42:40.928Z,101131.56
2022-08-26T11:45:31.590Z,101128.16
2022-08-26T11:47:58.841Z,101121.03
2022-08-26T11:50:28.455Z,101125.25
2022-08-26T11:53:02.001Z,101119.28
2022-08-26T11:55:35.600Z,101114.97
2022-08-26T11:58:06.423Z,101125.06
2022-08-26T12:00:58.977Z,101121.19
2022-08-26T12:03:44.187Z,101130.09
2022-08-26T12:06:46.393Z,101106.59
2022-08-26T12:09:34.347Z,101102.50
2022-08-26T12:12:34.168Z,101102.50
2022-08-26T12:15:22.715Z,101100.69
2022-08-26T12:17:54.595Z,101099.25
2022-08-26T12:20:46.467Z,101088.22
2022-08-26T12:23:41.277Z,101090.34
2022-08-26T12:26:23.438Z,101080.78
2022-08-26T12:29:19.886Z,101077.34
2022-08-26T12:31:47.984Z,101071.03
2022-08-26T12:34:17.944Z,101067.50
2022-08-26T12:36:55.799Z,101054.09
2022-08-26T12:39:36.238Z,101048.13
2022-08-26T12:42:17.514Z,101059.31
2022-08-26T12:44:53.946Z,101054.25
2022-08-26T12:47:43.566Z,101050.81
2022-08-26T12:50:33.626Z,101046.75
2022-08-26T12:53:09.421Z,101059.94
2022-08-26T12:56:05.403Z,101055.56
2022-08-26T12:58:36.184Z,101057.25
2022-08-26T13:01:08.793Z,101060.81
2022-08-26T13:03:38.539Z,101056.31
2022-08-26T13:06:31.137Z,101057.94
2022-08-26T13:09:25.309Z,101071.97
2022-08-26T13:11:54.932Z,101075.19
2022-08-26T13:14:24.678Z,101074.03
2022-08-26T13:16:53.107Z,101079.84
2022-08-26T13:19:25.377Z,101082.19
2022-08-26T13:22:00.642Z,101086.69
2022-08-26T13:24:38.603Z,101083.72
2022-08-26T13:27:07.778Z,101084.16
2022-08-26T13:29:35.127Z,101087.47
2022-08-26T13:32:02.315Z,101087.38
2022-08-26T13:34:30.851Z,101093.28
2022-08-26T13:36:59.141Z,101089.22
2022-08-26T13:39:26.768Z,101083.19
2022-08-26T13:41:54.738Z,101080.41
2022-08-26T13:44:21.771Z,101073.13
2022-08-26T13:46:49.088Z,101054.09
2022-08-26T13:49:16.106Z,101059.84
2022-08-26T13:51:43.103Z,101065.00
2022-08-26T13:54:10.059Z,101070.88
2022-08-26T13:56:37.443Z,101061.88
2022-08-26T13:59:05.565Z,101063.13
2022-08-26T14:01:35.347Z,101062.50
2022-08-26T14:04:03.053Z,101054.19
2022-08-26T14:06:30.155Z,101062.53
2022-08-26T14:08:57.415Z,101059.31
2022-08-26T14:11:24.966Z,101054.25
2022-08-26T14:13:52.340Z,101044.16
2022-08-26T14:16:31.440Z,101027.63
2022-08-26T14:19:01.221Z,101013.13
2022-08-26T14:21:34.499Z,101016.78
2022-08-26T14:24:01.478Z,101008.88
2022-08-26T14:26:29.824Z,101013.09
2022-08-26T14:29:02.621Z,101006.13
2022-08-26T14:31:31.697Z,101002.31
2022-08-26T14:34:04.291Z,100990.63
2022-08-26T14:36:32.363Z,100997.72
2022-08-26T14:39:05.042Z,100994.00
2022-08-26T14:41:33.675Z,100990.41
2022-08-26T14:44:05.890Z,101002.19
2022-08-26T14:46:43.121Z,101013.03
2022-08-26T14:49:10.855Z,101041.34
2022-08-26T14:51:38.999Z,101040.28
2022-08-26T14:54:12.039Z,101055.00
2022-08-26T14:56:48.814Z,101059.59
2022-08-26T14:59:38.604Z,101060.44
2022-08-26T15:02:13.792Z,101058.75
2022-08-26T15:04:45.065Z,101059.59
2022-08-26T15:07:12.636Z,101062.06
2022-08-26T15:09:39.851Z,101065.31
2022-08-26T15:12:06.907Z,101063.25
2022-08-26T15:14:34.291Z,101054.03
2022-08-26T15:17:01.253Z,101055.22
2022-08-26T15:19:28.429Z,101069.53
2022-08-26T15:21:56.579Z,101072.31
2022-08-26T15:24:25.862Z,101112.47
2022-08-26T15:26:53.395Z,101140.88
2022-08-26T15:29:20.987Z,101151.00
2022-08-26T15:31:48.679Z,101155.03
2022-08-26T15:34:17.147Z,101142.13
2022-08-26T15:36:46.264Z,101124.84
2022-08-26T15:39:15.284Z,101130.00
2022-08-26T15:41:42.203Z,101137.81
2022-08-26T15:44:10.493Z,101126.91
2022-08-26T15:46:38.617Z,101114.19
2022-08-26T15:49:07.051Z,101105.81
2022-08-26T15:51:45.673Z,101095.94
2022-08-26T15:54:15.950Z,101096.84
2022-08-26T15:56:43.607Z,101088.75
2022-08-26T15:59:11.497Z,101086.63
2022-08-26T16:01:38.810Z,101077.81
2022-08-26T16:04:05.864Z,101073.84
2022-08-26T16:06:36.049Z,101065.75
2022-08-26T16:09:03.834Z,101051.78
2022-08-26T16:11:31.166Z,101045.50
2022-08-26T16:13:58.330Z,101035.22
2022-08-26T16:16:25.255Z,101029.53
2022-08-26T16:18:52.415Z,101021.72
2022-08-26T16:21:24.606Z,101023.59
2022-08-26T16:23:52.209Z,101031.59
2022-08-26T16:26:24.152Z,101024.88
2022-08-26T16:28:51.201Z,101023.00
2022-08-26T16:31:18.694Z,101022.09
2022-08-26T16:33:46.231Z,101012.66
2022-08-26T16:36:14.264Z,101016.03
2022-08-26T16:38:41.653Z,101000.84
2022-08-26T16:41:08.671Z,100999.75
2022-08-26T16:43:36.037Z,101014.72
2022-08-26T16:46:06.940Z,101024.34
2022-08-26T16:48:35.236Z,101017.38
2022-08-26T16:51:02.154Z,101019.19
2022-08-26T16:53:29.098Z,101032.50
2022-08-26T16:55:56.025Z,101030.69
2022-08-26T16:58:23.000Z,101033.38
2022-08-26T17:00:50.161Z,101026.38
2022-08-26T17:03:17.344Z,101036.09
2022-08-26T17:05:44.514Z,101029.06
2022-08-26T17:08:13.775Z,101030.88
2022-08-26T17:13:10.479Z,101040.72
2022-08-26T17:15:37.542Z,101050.81
2022-08-26T17:18:05.092Z,101044.88
2022-08-26T17:20:32.311Z,101044.00
2022-08-26T17:22:59.376Z,101044.81
2022-08-26T17:25:31.632Z,101034.22
2022-08-26T17:27:59.600Z,101020.09
2022-08-26T17:30:27.034Z,101018.22
2022-08-26T17:32:55.044Z,101021.00
2022-08-26T17:35:22.748Z,101015.91
2022-08-26T17:37:49.720Z,101016.31
2022-08-26T17:40:21.018Z,101019.66
2022-08-26T17:42:48.500Z,101028.75
2022-08-26T17:45:15.947Z,101036.03
2022-08-26T17:47:43.543Z,101053.97
2022-08-26T17:50:14.970Z,101067.50
2022-08-26T17:52:42.196Z,101076.72
2022-08-26T17:55:12.723Z,101085.03
2022-08-26T17:57:40.549Z,101074.66
2022-08-26T18:00:16.715Z,101059.94
2022-08-26T18:02:43.936Z,101049.41
2022-08-26T18:05:14.292Z,101037.97
2022-08-26T18:07:44.056Z,101045.19
2022-08-26T18:10:14.057Z,101055.03
2022-08-26T18:12:41.576Z,101072.72
2022-08-26T18:15:11.180Z,101070.22
2022-08-26T18:17:39.320Z,101013.63
2022-08-26T18:20:13.229Z,100980.06
2022-08-26T18:22:41.958Z,100981.13
2022-08-26T18:25:09.915Z,101000.91
2022-08-26T18:27:37.874Z,101009.56
2022-08-26T18:30:14.571Z,101011.00
2022-08-26T18:32:43.316Z,101009.38
2022-08-26T18:35:11.560Z,101022.47
2022-08-26T18:37:38.654Z,101050.13
2022-08-26T18:40:09.456Z,101055.69
2022-08-26T18:42:36.375Z,101067.19
2022-08-26T18:45:08.716Z,101078.53
2022-08-26T18:47:36.013Z,101070.41
2022-08-26T18:50:04.910Z,101071.00
2022-08-26T18:52:32.552Z,101073.50
2022-08-26T18:54:59.507Z,101096.09
2022-08-26T18:57:26.454Z,101095.84
2022-08-26T18:59:53.347Z,101085.09
2022-08-26T19:02:20.380Z,101089.16
2022-08-26T19:04:47.396Z,101102.44
2022-08-26T19:07:14.506Z,101116.41
2022-08-26T19:09:41.482Z,101116.31
2022-08-26T19:12:08.844Z,101101.44
2022-08-26T19:14:36.440Z,101087.00
2022-08-26T19:17:03.727Z,101094.88
2022-08-26T19:19:31.661Z,101082.78
2022-08-26T19:21:58.587Z,101083.03
2022-08-26T19:24:25.990Z,101080.72
2022-08-26T19:26:59.670Z,101074.66
2022-08-26T19:29:33.484Z,101075.34
2022-08-26T19:32:00.776Z,101069.84
2022-08-26T19:34:29.234Z,101067.38
2022-08-26T19:36:58.212Z,101043.06
2022-08-26T19:39:26.503Z,101030.06
2022-08-26T19:41:53.647Z,101016.94
2022-08-26T19:44:41.605Z,101015.25
2022-08-26T19:47:10.937Z,100993.53
2022-08-26T19:49:39.031Z,100990.38
2022-08-26T19:52:06.294Z,100990.91
2022-08-26T19:54:34.103Z,100979.94
2022-08-26T19:57:01.101Z,100987.31
2022-08-26T19:59:29.064Z,100997.69
2022-08-26T20:02:01.483Z,101000.88
2022-08-26T20:04:30.691Z,101003.13
2022-08-26T20:07:00.526Z,101012.50
2022-08-26T20:09:32.665Z,101015.81
2022-08-26T20:12:00.417Z,101014.69
2022-08-26T20:14:28.491Z,101016.25
2022-08-26T20:16:55.535Z,101031.16
2022-08-26T20:19:41.361Z,101030.34
2022-08-26T20:22:08.752Z,101028.66
2022-08-26T20:24:35.706Z,101042.66
2022-08-26T20:27:07.680Z,101035.41
2022-08-26T20:29:36.836Z,101038.88
2022-08-26T20:32:06.390Z,101055.69
2022-08-26T20:34:34.772Z,101062.75
2022-08-26T20:37:02.725Z,101060.94
2022-08-26T20:39:29.850Z,101074.75
2022-08-26T20:41:57.792Z,101072.63
2022-08-26T20:44:25.571Z,101063.88
2022-08-26T20:46:52.623Z,101068.31
2022-08-26T20:49:19.788Z,101063.22
2022-08-26T20:51:51.359Z,101064.13
2022-08-26T20:54:22.124Z,101063.22
2022-08-26T20:56:51.814Z,101069.53
2022-08-26T20:59:19.339Z,101050.31
2022-08-26T21:01:47.432Z,101053.34
2022-08-26T21:04:19.444Z,101060.72
2022-08-26T21:06:52.407Z,101051.75
2022-08-26T21:09:22.150Z,101052.47
2022-08-26T21:11:50.500Z,101063.09
2022-08-26T21:14:18.932Z,101071.38
2022-08-26T21:16:47.093Z,101071.56
2022-08-26T21:19:17.510Z,101059.97
2022-08-26T21:21:46.684Z,101060.72
2022-08-26T21:24:14.144Z,101078.16
2022-08-26T21:26:41.197Z,101086.66
2022-08-26T21:29:09.937Z,101089.00
2022-08-26T21:31:42.150Z,101091.38
2022-08-26T21:34:12.139Z,101087.84
2022-08-26T21:36:39.052Z,101079.28
2022-08-26T21:39:11.253Z,101074.25
2022-08-26T21:41:40.319Z,101079.56
2022-08-26T21:44:07.704Z,101077.69
2022-08-26T21:46:37.148Z,101063.47
2022-08-26T21:49:07.651Z,101052.34
2022-08-26T21:51:38.956Z,101059.31
2022-08-26T21:54:10.828Z,101064.44
2022-08-26T21:56:44.176Z,101064.00
2022-08-26T21:59:12.147Z,101064.28
2022-08-26T22:01:39.143Z,101072.44
2022-08-26T22:04:09.065Z,101072.69
2022-08-26T22:06:45.530Z,101081.47
2022-08-26T22:09:15.009Z,101083.13
2022-08-26T22:11:42.029Z,101080.94
2022-08-26T22:14:09.580Z,101080.56
2022-08-26T22:16:36.589Z,101075.00
2022-08-26T22:19:03.569Z,101069.56
2022-08-26T22:21:30.567Z,101069.41
2022-08-26T22:23:58.570Z,101086.69
2022-08-26T22:26:30.143Z,101078.72
2022-08-26T22:28:59.500Z,101084.69
2022-08-26T22:31:37.159Z,101089.97
2022-08-26T22:34:19.449Z,101084.69
2022-08-26T22:36:48.928Z,101079.34
2022-08-26T22:39:21.315Z,101074.94
2022-08-26T22:41:49.411Z,101053.00
2022-08-26T22:44:18.256Z,101067.63
2022-08-26T22:46:46.237Z,101057.78
2022-08-26T22:49:17.426Z,101057.88
2022-08-26T22:51:45.583Z,101058.00
2022-08-26T22:54:13.989Z,101050.00
2022-08-26T22:56:41.493Z,101058.00
2022-08-26T22:59:08.900Z,101058.94
2022-08-26T23:01:42.580Z,101058.31
2022-08-26T23:04:10.915Z,101061.06
2022-08-26T23:06:41.768Z,101059.19
2022-08-26T23:09:09.394Z,101059.13
2022-08-26T23:11:36.364Z,101067.03
2022-08-26T23:14:06.317Z,101070.63
2022-08-26T23:16:41.534Z,101058.19
2022-08-26T23:19:11.336Z,101049.34
2022-08-26T23:21:39.055Z,101042.31
2022-08-26T23:24:07.601Z,101039.66
2022-08-26T23:26:35.206Z,101037.88
2022-08-26T23:29:02.837Z,101035.25
2022-08-26T23:31:29.840Z,101036.34
2022-08-26T23:34:15.473Z,101039.06
2022-08-26T23:36:44.144Z,101023.31
2022-08-26T23:39:14.035Z,101011.03
2022-08-26T23:41:41.637Z,101009.38
2022-08-26T23:44:08.528Z,100990.75
2022-08-26T23:46:35.993Z,100983.69
2022-08-26T23:49:04.119Z,100969.66
2022-08-26T23:51:50.099Z,100969.00
2022-08-26T23:54:17.088Z,100962.63
2022-08-26T23:56:44.206Z,100950.91
2022-08-26T23:59:11.447Z,100947.09
